createdAt,value
2019-05-03T00:02:01.918Z,5.60
2019-05-03T00:04:31.603Z,5.95
2019-05-03T00:06:59.815Z,6.00
2019-05-03T00:09:28.118Z,5.60
2019-05-03T00:11:56.302Z,5.67
2019-05-03T00:14:24.491Z,5.85
2019-05-03T00:16:52.627Z,5.80
2019-05-03T00:19:21.945Z,5.92
2019-05-03T00:21:50.319Z,6.42
2019-05-03T00:24:18.460Z,6.17
2019-05-03T00:26:46.576Z,5.90
2019-05-03T00:29:14.763Z,6.33
2019-05-03T00:31:42.883Z,5.90
2019-05-03T00:34:12.643Z,5.92
2019-05-03T00:36:42.394Z,5.92
2019-05-03T00:39:14.971Z,5.97
2019-05-03T00:41:43.099Z,5.92
2019-05-03T00:44:11.588Z,5.95
2019-05-03T00:46:39.787Z,5.55
2019-05-03T00:49:08.300Z,6.10
2019-05-03T00:51:36.440Z,5.60
2019-05-03T00:54:04.696Z,5.90
2019-05-03T00:56:32.818Z,5.58
2019-05-03T00:59:02.194Z,6.10
2019-05-03T01:01:32.057Z,5.78
2019-05-03T01:04:01.811Z,5.87
2019-05-03T01:06:31.807Z,5.83
2019-05-03T01:09:00.279Z,5.75
2019-05-03T01:11:28.398Z,6.08
2019-05-03T01:13:56.520Z,5.80
2019-05-03T01:16:25.531Z,6.15
2019-05-03T01:18:53.637Z,5.72
2019-05-03T01:21:22.569Z,5.67
2019-05-03T01:23:52.604Z,6.08
2019-05-03T01:26:22.659Z,5.92
2019-05-03T01:28:52.178Z,5.72
2019-05-03T01:31:22.516Z,6.05
2019-05-03T01:33:51.627Z,5.70
2019-05-03T01:36:20.203Z,5.70
2019-05-03T01:38:48.323Z,6.05
2019-05-03T01:41:16.608Z,5.78
2019-05-03T01:43:44.750Z,5.85
2019-05-03T01:46:12.872Z,5.55
2019-05-03T01:48:54.694Z,5.50
2019-05-03T01:51:36.402Z,5.50
2019-05-03T01:54:04.610Z,5.67
2019-05-03T01:56:32.715Z,5.42
2019-05-03T01:59:01.852Z,5.70
2019-05-03T02:01:31.927Z,5.83
2019-05-03T02:04:07.910Z,5.80
2019-05-03T02:06:36.067Z,5.80
2019-05-03T02:09:05.802Z,5.50
2019-05-03T02:11:33.910Z,5.37
2019-05-03T02:14:02.023Z,5.87
2019-05-03T02:16:30.189Z,5.97
2019-05-03T02:18:58.304Z,5.70
2019-05-03T02:21:26.400Z,5.83
2019-05-03T02:23:54.526Z,5.60
2019-05-03T02:26:22.633Z,6.03
2019-05-03T02:28:52.632Z,5.53
2019-05-03T02:31:22.922Z,5.87
2019-05-03T02:33:53.109Z,5.50
2019-05-03T02:36:23.037Z,5.40
2019-05-03T02:38:50.312Z,5.42
2019-05-03T02:41:18.570Z,5.85
2019-05-03T02:43:48.319Z,5.40
2019-05-03T02:46:18.085Z,5.40
2019-05-03T02:48:55.683Z,5.50
2019-05-03T02:51:26.110Z,5.40
2019-05-03T02:53:56.797Z,5.70
2019-05-03T02:56:26.062Z,5.72
2019-05-03T02:58:55.768Z,5.10
2019-05-03T03:01:26.375Z,5.20
2019-05-03T03:03:56.027Z,5.65
2019-05-03T03:06:26.807Z,5.30
2019-05-03T03:08:56.343Z,5.60
2019-05-03T03:11:26.235Z,5.60
2019-05-03T03:13:56.112Z,5.20
2019-05-03T03:16:26.118Z,4.67
2019-05-03T03:18:56.077Z,5.10
2019-05-03T03:21:27.375Z,4.90
2019-05-03T03:24:06.727Z,4.80
2019-05-03T03:26:41.598Z,5.70
2019-05-03T03:29:07.880Z,5.17
2019-05-03T03:31:49.864Z,4.95
2019-05-03T03:34:19.735Z,5.42
2019-05-03T03:37:00.983Z,5.25
2019-05-03T03:39:25.918Z,4.97
2019-05-03T03:41:55.943Z,4.80
2019-05-03T03:44:25.720Z,5.35
2019-05-03T03:46:56.214Z,5.08
2019-05-03T03:49:26.399Z,5.30
2019-05-03T03:51:56.384Z,5.00
2019-05-03T03:54:26.022Z,4.80
2019-05-03T03:57:03.338Z,4.85
2019-05-03T03:59:26.631Z,5.10
2019-05-03T04:01:55.340Z,5.37
2019-05-03T04:04:26.180Z,4.85
2019-05-03T04:06:58.550Z,5.05
2019-05-03T04:09:25.575Z,5.05
2019-05-03T04:11:56.699Z,5.00
2019-05-03T04:14:26.899Z,4.97
2019-05-03T04:16:57.035Z,4.97
2019-05-03T04:19:36.161Z,4.95
2019-05-03T04:22:05.656Z,4.78
2019-05-03T04:24:35.088Z,4.87
2019-05-03T04:27:15.507Z,5.00
2019-05-03T04:29:35.761Z,5.12
2019-05-03T04:32:06.161Z,5.12
2019-05-03T04:34:36.305Z,5.10
2019-05-03T04:37:05.314Z,4.80
2019-05-03T04:39:35.984Z,4.87
2019-05-03T04:42:06.787Z,5.20
2019-05-03T04:44:35.793Z,4.85
2019-05-03T04:47:06.771Z,5.10
2019-05-03T04:49:36.239Z,4.65
2019-05-03T04:52:05.797Z,4.97
2019-05-03T04:54:42.142Z,4.90
2019-05-03T04:57:10.327Z,5.08
2019-05-03T04:59:38.674Z,5.00
2019-05-03T05:02:06.968Z,5.20
2019-05-03T05:04:35.890Z,4.90
2019-05-03T05:07:06.166Z,5.92
2019-05-03T05:09:34.913Z,5.50
2019-05-03T05:12:05.645Z,5.05
2019-05-03T05:14:35.228Z,4.97
2019-05-03T05:17:05.850Z,5.03
2019-05-03T05:19:44.576Z,4.92
2019-05-03T05:22:15.527Z,4.80
2019-05-03T05:24:44.990Z,4.80
2019-05-03T05:27:20.904Z,4.92
2019-05-03T05:29:49.023Z,4.78
2019-05-03T05:32:17.305Z,4.62
2019-05-03T05:34:46.092Z,4.90
2019-05-03T05:37:14.560Z,5.22
2019-05-03T05:39:44.607Z,5.03
2019-05-03T05:42:14.776Z,5.45
2019-05-03T05:44:42.824Z,6.40
2019-05-03T05:47:29.102Z,6.40
2019-05-03T05:50:01.880Z,6.50
2019-05-03T05:54:59.053Z,6.85
2019-05-03T05:57:41.131Z,7.25
2019-05-03T06:00:29.311Z,7.45
2019-05-03T06:02:57.527Z,7.33
2019-05-03T06:05:25.775Z,7.00
2019-05-03T06:08:07.797Z,7.95
2019-05-03T06:10:40.152Z,7.80
2019-05-03T06:13:15.077Z,7.72
2019-05-03T06:15:44.817Z,7.60
2019-05-03T06:18:14.717Z,7.22
2019-05-03T06:21:01.147Z,7.25
2019-05-03T06:23:30.951Z,7.10
2019-05-03T06:25:59.567Z,7.20
2019-05-03T06:28:31.835Z,7.30
2019-05-03T06:31:14.896Z,7.30
2019-05-03T06:36:10.463Z,7.33
2019-05-03T06:38:38.591Z,7.70
2019-05-03T06:41:06.725Z,7.28
2019-05-03T06:43:39.475Z,7.60
2019-05-03T06:46:05.414Z,7.40
2019-05-03T06:48:35.224Z,6.60
2019-05-03T06:51:08.740Z,7.65
2019-05-03T06:53:34.576Z,7.12
2019-05-03T06:56:04.519Z,7.62
2019-05-03T06:58:35.726Z,7.55
2019-05-03T07:01:11.341Z,7.03
2019-05-03T07:03:41.347Z,6.47
2019-05-03T07:06:32.955Z,5.90
2019-05-03T07:08:51.451Z,5.90
2019-05-03T07:11:19.675Z,5.60
2019-05-03T07:13:47.809Z,6.25
2019-05-03T07:16:15.903Z,6.40
2019-05-03T07:18:45.505Z,6.40
2019-05-03T07:21:15.245Z,6.97
2019-05-03T07:23:45.100Z,6.92
2019-05-03T07:26:15.119Z,6.12
2019-05-03T07:28:47.770Z,6.30
2019-05-03T07:31:15.066Z,6.60
2019-05-03T07:33:44.658Z,6.58
2019-05-03T07:36:15.060Z,6.60
2019-05-03T07:38:42.867Z,6.20
2019-05-03T07:41:11.041Z,6.05
2019-05-03T07:43:39.170Z,6.10
2019-05-03T07:46:07.332Z,6.15
2019-05-03T07:48:35.770Z,5.70
2019-05-03T07:51:05.447Z,6.28
2019-05-03T07:53:34.909Z,6.30
2019-05-03T07:56:07.955Z,5.95
2019-05-03T08:01:14.813Z,5.45
2019-05-03T08:03:44.991Z,5.90
2019-05-03T08:06:14.798Z,6.15
2019-05-03T08:08:42.806Z,5.25
2019-05-03T08:11:10.927Z,5.50
2019-05-03T08:13:39.043Z,5.05
2019-05-03T08:16:07.180Z,4.95
2019-05-03T08:18:35.569Z,5.37
2019-05-03T08:21:05.569Z,5.00
2019-05-03T08:23:35.306Z,5.10
2019-05-03T08:26:05.850Z,4.85
2019-05-03T08:28:34.619Z,4.87
2019-05-03T08:31:16.739Z,5.42
2019-05-03T08:33:52.233Z,4.60
2019-05-03T08:36:20.377Z,4.65
2019-05-03T08:38:48.538Z,4.53
2019-05-03T08:41:18.292Z,4.50
2019-05-03T08:43:46.551Z,4.50
2019-05-03T08:46:14.897Z,4.50
2019-05-03T08:48:43.124Z,4.80
2019-05-03T08:51:11.391Z,5.00
2019-05-03T08:53:39.487Z,4.20
2019-05-03T08:56:07.656Z,4.30
2019-05-03T08:58:35.756Z,4.50
2019-05-03T09:01:05.533Z,4.40
2019-05-03T09:03:36.374Z,4.53
2019-05-03T09:06:04.708Z,4.37
2019-05-03T09:08:35.132Z,4.22
2019-05-03T09:11:05.036Z,3.83
2019-05-03T09:13:45.003Z,4.25
2019-05-03T09:16:14.764Z,4.30
2019-05-03T09:18:45.259Z,4.35
2019-05-03T09:21:14.775Z,3.98
2019-05-03T09:23:44.829Z,4.12
2019-05-03T09:26:14.847Z,4.40
2019-05-03T09:28:42.557Z,3.98
2019-05-03T09:31:11.459Z,4.15
2019-05-03T09:33:39.638Z,4.80
2019-05-03T09:36:07.798Z,3.90
2019-05-03T09:38:35.909Z,3.98
2019-05-03T09:41:05.248Z,4.15
2019-05-03T09:43:35.199Z,3.92
2019-05-03T09:46:05.158Z,4.15
2019-05-03T09:48:34.708Z,3.90
2019-05-03T09:51:05.041Z,4.15
2019-05-03T09:53:37.542Z,3.67
2019-05-03T09:58:36.441Z,3.85
2019-05-03T10:01:06.089Z,4.15
2019-05-03T10:03:32.996Z,3.87
2019-05-03T10:06:01.109Z,3.72
2019-05-03T10:08:29.303Z,3.95
2019-05-03T10:11:15.155Z,3.87
2019-05-03T10:13:42.428Z,3.58
2019-05-03T10:16:10.613Z,4.08
2019-05-03T10:18:38.730Z,4.30
2019-05-03T10:21:06.963Z,3.67
2019-05-03T10:23:36.727Z,3.60
2019-05-03T10:26:05.524Z,3.77
2019-05-03T10:28:33.647Z,3.75
2019-05-03T10:31:04.828Z,3.67
2019-05-03T10:33:35.363Z,4.33
2019-05-03T10:36:05.360Z,4.10
2019-05-03T10:38:33.268Z,3.95
2019-05-03T10:41:01.457Z,3.77
2019-05-03T10:43:29.689Z,3.87
2019-05-03T10:45:57.800Z,4.00
2019-05-03T10:48:25.933Z,4.10
2019-05-03T10:50:56.264Z,3.90
2019-05-03T10:53:31.424Z,3.70
2019-05-03T10:56:23.112Z,3.50
2019-05-03T10:58:57.096Z,3.70
2019-05-03T11:01:41.919Z,3.75
2019-05-03T11:04:10.102Z,3.80
2019-05-03T11:06:38.214Z,3.90
2019-05-03T11:09:06.408Z,3.47
2019-05-03T11:11:35.209Z,3.87
2019-05-03T11:14:05.413Z,3.77
2019-05-03T11:16:35.142Z,3.85
2019-05-03T11:19:05.356Z,3.80
2019-05-03T11:21:34.726Z,4.10
2019-05-03T11:24:03.138Z,3.83
2019-05-03T11:26:31.454Z,3.85
2019-05-03T11:29:00.613Z,3.55
2019-05-03T11:31:47.229Z,3.80
2019-05-03T11:34:18.344Z,4.00
2019-05-03T11:36:48.723Z,3.87
2019-05-03T11:39:16.923Z,4.15
2019-05-03T11:41:46.677Z,4.30
2019-05-03T11:44:33.035Z,4.12
2019-05-03T11:47:01.172Z,4.28
2019-05-03T11:49:29.280Z,4.05
2019-05-03T11:51:57.418Z,4.15
2019-05-03T11:54:25.909Z,4.20
2019-05-03T11:56:55.606Z,4.65
2019-05-03T11:59:25.389Z,4.45
2019-05-03T12:02:07.741Z,4.25
2019-05-03T12:04:35.855Z,4.87
2019-05-03T12:07:05.929Z,4.28
2019-05-03T12:09:34.345Z,4.20
2019-05-03T12:12:04.762Z,4.35
2019-05-03T12:14:34.524Z,4.33
2019-05-03T12:17:19.028Z,4.28
2019-05-03T12:19:44.261Z,4.28
2019-05-03T12:22:13.199Z,4.47
2019-05-03T12:24:41.972Z,4.45
2019-05-03T12:27:10.631Z,3.98
2019-05-03T12:29:38.773Z,4.15
2019-05-03T12:32:07.182Z,4.25
2019-05-03T12:34:35.430Z,3.87
2019-05-03T12:37:05.153Z,3.92
2019-05-03T12:39:35.749Z,3.90
2019-05-03T12:42:05.691Z,3.90
2019-05-03T12:44:35.450Z,4.15
2019-05-03T12:47:06.055Z,3.95
2019-05-03T12:49:35.827Z,3.83
2019-05-03T12:52:05.291Z,3.95
2019-05-03T12:54:35.560Z,4.25
2019-05-03T12:57:05.088Z,3.75
2019-05-03T12:59:38.042Z,3.77
2019-05-03T13:02:15.495Z,3.70
2019-05-03T13:04:45.476Z,4.00
2019-05-03T13:07:18.009Z,4.40
2019-05-03T13:09:46.264Z,4.45
2019-05-03T13:12:16.034Z,3.85
2019-05-03T13:14:45.388Z,3.95
2019-05-03T13:17:15.209Z,3.45
2019-05-03T13:19:45.180Z,3.95
2019-05-03T13:22:13.495Z,3.75
2019-05-03T13:24:41.616Z,3.65
2019-05-03T13:27:09.774Z,3.58
2019-05-03T13:29:38.044Z,3.80
2019-05-03T13:32:06.213Z,3.87
2019-05-03T16:35:18.567Z,6.35
2019-05-03T16:37:46.674Z,3.92
2019-05-03T16:42:52.551Z,4.67
2019-05-03T16:45:20.957Z,5.50
2019-05-03T16:47:49.263Z,5.37
2019-05-03T16:50:17.929Z,5.53
2019-05-03T16:52:46.390Z,5.37
2019-05-03T16:55:16.459Z,5.90
2019-05-03T16:57:44.870Z,5.95
2019-05-03T17:00:15.334Z,5.95
2019-05-03T17:02:44.371Z,5.78
2019-05-03T17:05:26.356Z,5.53
2019-05-03T17:08:08.249Z,6.28
2019-05-03T17:10:38.272Z,5.47
2019-05-03T17:13:06.611Z,5.25
2019-05-03T17:15:35.357Z,5.22
2019-05-03T17:18:03.922Z,5.03
2019-05-03T17:20:32.264Z,5.53
2019-05-03T17:23:00.649Z,5.90
2019-05-03T17:25:29.000Z,5.30
2019-05-03T17:27:57.339Z,5.22
2019-05-03T17:30:33.831Z,4.60
2019-05-03T17:32:55.786Z,4.95
2019-05-03T17:35:25.150Z,4.78
2019-05-03T17:37:54.618Z,4.55
2019-05-03T17:40:40.899Z,2.50
2019-05-03T17:43:10.942Z,2.40
2019-05-03T17:45:46.684Z,1.98
2019-05-03T17:48:15.089Z,2.67
2019-05-03T17:50:45.385Z,2.52
2019-05-03T17:53:31.752Z,2.20
2019-05-03T17:56:01.686Z,1.80
2019-05-03T17:58:47.606Z,1.75
2019-05-03T18:01:35.077Z,1.45
2019-05-03T18:04:20.501Z,1.47
2019-05-03T18:07:02.258Z,1.30
2019-05-03T18:09:32.223Z,1.40
2019-05-03T18:12:02.252Z,1.70
2019-05-03T18:14:30.559Z,1.65
2019-05-03T18:16:58.909Z,1.60
2019-05-03T18:19:27.227Z,1.47
2019-05-03T18:21:55.565Z,1.67
2019-05-03T18:24:24.763Z,1.67
2019-05-03T18:26:53.168Z,1.50
2019-05-03T18:29:21.487Z,1.42
2019-05-03T18:31:49.771Z,1.45
2019-05-03T18:34:22.183Z,1.40
2019-05-03T18:36:48.119Z,1.37
2019-05-03T18:39:16.581Z,1.55
2019-05-03T18:41:45.256Z,1.17
2019-05-03T18:44:24.279Z,1.62
2019-05-03T18:46:55.093Z,1.30
2019-05-03T18:49:24.791Z,1.12
2019-05-03T18:51:55.192Z,1.40
2019-05-03T18:54:24.591Z,1.40
2019-05-03T18:56:53.181Z,1.40
2019-05-03T18:59:21.622Z,1.30
2019-05-03T19:01:50.096Z,1.30
2019-05-03T19:04:31.270Z,1.57
2019-05-03T19:07:02.086Z,1.35
2019-05-03T19:09:25.109Z,1.30
2019-05-03T19:14:25.512Z,1.45
2019-05-03T19:16:58.045Z,1.40
2019-05-03T19:19:28.030Z,1.40
2019-05-03T19:21:56.345Z,1.30
2019-05-03T19:24:24.745Z,1.37
2019-05-03T19:26:54.378Z,1.45
2019-05-03T19:29:22.679Z,1.30
2019-05-03T19:31:50.996Z,1.52
2019-05-03T19:34:19.304Z,1.55
2019-05-03T19:36:47.612Z,1.50
2019-05-03T19:39:15.911Z,1.50
2019-05-03T19:41:44.846Z,1.27
2019-05-03T19:44:15.017Z,1.47
2019-05-03T19:46:44.514Z,1.45
2019-05-03T19:49:13.151Z,1.40
2019-05-03T19:51:41.540Z,1.40
2019-05-03T19:54:09.843Z,1.47
2019-05-03T19:56:38.160Z,1.40
2019-05-03T19:59:08.164Z,1.62
2019-05-03T20:01:40.804Z,1.37
2019-05-03T20:04:10.829Z,1.70
2019-05-03T20:06:40.858Z,1.30
2019-05-03T20:09:16.506Z,1.30
2019-05-03T20:11:46.055Z,1.40
2019-05-03T20:14:14.863Z,1.47
2019-05-03T20:16:44.997Z,1.70
2019-05-03T20:19:19.054Z,1.30
2019-05-03T20:21:43.390Z,1.50
2019-05-03T20:24:11.691Z,1.10
2019-05-03T20:26:40.003Z,1.37
2019-05-03T20:29:08.286Z,1.70
2019-05-03T20:31:36.693Z,1.20
2019-05-03T20:34:05.438Z,1.35
2019-05-03T20:36:35.058Z,1.42
2019-05-03T20:39:05.461Z,1.52
2019-05-03T20:41:35.042Z,1.30
2019-05-03T20:44:20.813Z,1.37
2019-05-03T20:47:05.803Z,1.50
2019-05-03T20:49:34.762Z,1.57
2019-05-03T20:52:03.183Z,1.37
2019-05-03T20:54:31.547Z,1.35
2019-05-03T20:56:59.918Z,1.60
2019-05-03T20:59:28.307Z,1.60
2019-05-03T21:01:56.597Z,1.27
2019-05-03T21:04:24.965Z,1.57
2019-05-03T21:06:55.090Z,1.40
2019-05-03T21:09:23.249Z,1.52
2019-05-03T21:11:51.531Z,1.50
2019-05-03T21:14:19.880Z,1.50
2019-05-03T21:17:04.658Z,1.50
2019-05-03T21:19:35.288Z,1.67
2019-05-03T21:22:05.591Z,1.60
2019-05-03T21:24:38.554Z,1.45
2019-05-03T21:27:06.912Z,1.40
2019-05-03T21:29:36.961Z,1.47
2019-05-03T21:32:05.306Z,1.50
2019-05-03T21:34:34.562Z,1.70
2019-05-03T21:37:03.018Z,1.75
2019-05-03T21:39:31.329Z,1.40
2019-05-03T21:41:59.710Z,1.60
2019-05-03T21:44:31.219Z,1.37
2019-05-03T21:47:01.210Z,1.30
2019-05-03T21:49:31.338Z,1.57
2019-05-03T21:51:59.691Z,1.55
2019-05-03T21:54:28.002Z,1.57
2019-05-03T21:56:57.963Z,3.02
2019-05-03T21:59:26.690Z,1.82
2019-05-03T22:01:55.219Z,1.60
2019-05-03T22:04:24.880Z,1.32
2019-05-03T22:06:54.990Z,1.40
2019-05-03T22:09:23.457Z,1.60
2019-05-03T22:11:52.226Z,1.50
2019-05-03T22:14:28.293Z,1.65
2019-05-03T22:17:14.963Z,1.60
2019-05-03T22:19:44.990Z,1.62
2019-05-03T22:22:34.140Z,1.75
2019-05-03T22:25:04.778Z,1.42
2019-05-03T22:27:34.916Z,1.62
2019-05-03T22:30:04.489Z,1.40
2019-05-03T22:32:35.471Z,1.50
2019-05-03T22:35:06.675Z,1.30
2019-05-03T22:37:35.510Z,1.42
2019-05-03T22:40:07.149Z,1.65
2019-05-03T22:42:35.497Z,1.75
2019-05-03T22:45:05.351Z,1.50
2019-05-03T22:47:35.624Z,1.60
2019-05-03T22:50:05.419Z,1.60
2019-05-03T22:52:34.956Z,1.50
2019-05-03T22:55:05.408Z,1.65
2019-05-03T22:57:34.981Z,1.70
2019-05-03T23:00:06.318Z,1.62
2019-05-03T23:02:35.236Z,1.60
2019-05-03T23:05:04.757Z,1.62
2019-05-03T23:07:35.540Z,1.45
2019-05-03T23:10:04.860Z,1.50
2019-05-03T23:12:34.851Z,1.60
2019-05-03T23:15:05.780Z,1.55
2019-05-03T23:17:34.647Z,1.70
2019-05-03T23:20:06.406Z,1.62
2019-05-03T23:22:35.251Z,1.37
2019-05-03T23:25:05.255Z,1.47
2019-05-03T23:27:35.362Z,1.60
2019-05-03T23:30:05.005Z,1.57
2019-05-03T23:32:35.063Z,1.45
2019-05-03T23:35:05.085Z,1.52
2019-05-03T23:37:34.588Z,1.55
2019-05-03T23:40:04.743Z,1.72
2019-05-03T23:42:34.934Z,1.67
2019-05-03T23:45:04.823Z,1.50
2019-05-03T23:47:37.827Z,1.67
2019-05-03T23:50:09.387Z,1.40
2019-05-03T23:52:38.042Z,1.80
2019-05-03T23:55:12.090Z,1.62
2019-05-03T23:57:40.418Z,1.82
